Time;durP1;ratioP1;P1;durP2;ratioP2;P2;SDS_P1;SDS_P2;PMS_P1;PMS_P2;Temp;Humidity;BMP_temperature;BMP_pressure;BME280_temperature;BME280_humidity;BME280_pressure;Samples;Min_cycle;Max_cycle;Signal;HPM_P1;HPM_P2
2022/11/06 01:09:43;;;;;;;6.27;3.80;;;;;;;7.00;100.00;99689.66;6048384;23;20216;-79
2022/11/06 01:12:10;;;;;;;8.10;5.23;;;;;;;6.77;100.00;99689.09;6017437;23;20514;-81
2022/11/06 01:14:40;;;;;;;5.47;4.40;;;;;;;6.87;100.00;99691.41;6045583;23;20188;-81
2022/11/06 01:17:07;;;;;;;5.03;4.13;;;;;;;6.95;100.00;99686.75;6004277;23;20222;-82
2022/11/06 01:19:35;;;;;;;6.07;4.20;;;;;;;6.90;100.00;99686.56;6046960;23;20181;-81
2022/11/06 01:48:26;;;;;;;6.80;5.27;;;;;;;6.43;100.00;99711.16;6020044;23;20274;-80
2022/11/06 01:50:55;;;;;;;5.60;4.67;;;;;;;6.49;100.00;99712.22;5987074;23;20190;-80
2022/11/06 01:53:23;;;;;;;6.00;5.00;;;;;;;6.46;100.00;99708.09;6011809;23;20166;-79
2022/11/06 01:55:53;;;;;;;7.10;4.73;;;;;;;6.49;100.00;99699.72;6020042;23;20167;-81
2022/11/06 01:58:22;;;;;;;7.37;5.00;;;;;;;6.60;100.00;99709.88;5965866;23;20204;-80
2022/11/06 02:04:11;;;;;;;6.67;4.90;;;;;;;6.59;100.00;99702.88;6022858;23;20305;-81
2022/11/06 02:06:37;;;;;;;6.60;5.10;;;;;;;6.53;100.00;99694.88;5992737;23;20175;-81
2022/11/06 02:09:10;;;;;;;7.47;5.83;;;;;;;6.55;100.00;99703.47;6015475;23;20167;-81
2022/11/06 02:11:40;;;;;;;5.73;5.13;;;;;;;6.47;100.00;99704.44;6014883;23;20215;-82
2022/11/06 02:14:21;;;;;;;7.10;5.13;;;;;;;6.46;100.00;99704.63;6014338;23;20608;-81
2022/11/06 02:16:54;;;;;;;9.10;5.40;;;;;;;6.51;100.00;99700.38;6017019;23;20187;-81
2022/11/06 02:19:42;;;;;;;9.07;5.20;;;;;;;6.43;100.00;99708.50;5997790;23;20159;-81
2022/11/06 02:22:30;;;;;;;6.23;5.57;;;;;;;6.48;100.00;99706.09;5998704;23;20178;-81
2022/11/06 02:25:05;;;;;;;6.23;5.30;;;;;;;6.52;100.00;99703.84;5972426;23;20592;-81
2022/11/06 02:27:40;;;;;;;7.07;5.60;;;;;;;6.62;100.00;99713.13;6020885;23;20170;-81
2022/11/06 02:30:07;;;;;;;6.63;5.70;;;;;;;6.54;100.00;99721.28;5994876;23;20158;-81
2022/11/06 02:33:01;;;;;;;8.73;6.10;;;;;;;6.54;100.00;99715.13;5994959;23;20277;-81
2022/11/06 02:35:31;;;;;;;7.93;5.97;;;;;;;6.57;100.00;99715.59;6021129;23;20175;-81
2022/11/06 02:38:08;;;;;;;9.47;6.07;;;;;;;6.53;100.00;99713.50;5994262;23;20154;-81
2022/11/06 02:40:41;;;;;;;6.67;5.97;;;;;;;6.42;100.00;99712.16;5994598;23;20600;-80
2022/11/06 02:43:08;;;;;;;8.70;6.10;;;;;;;6.50;100.00;99713.84;5993342;23;20186;-81
2022/11/06 02:45:43;;;;;;;8.50;6.30;;;;;;;6.32;100.00;99711.66;6025225;23;20163;-81
2022/11/06 02:48:11;;;;;;;7.57;6.10;;;;;;;6.44;100.00;99715.44;5996865;23;20178;-81
2022/11/06 02:50:42;;;;;;;8.47;5.67;;;;;;;6.48;100.00;99711.41;5989843;23;20600;-80
2022/11/06 02:53:11;;;;;;;7.63;6.10;;;;;;;6.48;100.00;99710.59;5990619;23;20238;-81
2022/11/06 02:55:41;;;;;;;9.27;5.63;;;;;;;6.53;100.00;99724.16;6000534;23;20164;-82
2022/11/06 02:58:35;;;;;;;7.67;6.27;;;;;;;6.53;100.00;99716.97;6026542;23;20182;-81
2022/11/06 08:21:41;;;;;;;5.97;4.20;;;;;;;9.86;100.00;99771.69;6034417;23;20151;-83
2022/11/06 08:24:12;;;;;;;5.93;4.17;;;;;;;9.78;100.00;99767.38;6009195;23;20171;-82
2022/11/06 08:26:47;;;;;;;5.23;3.50;;;;;;;9.74;100.00;99760.81;6032398;23;20178;-82
2022/11/06 08:29:15;;;;;;;8.53;4.17;;;;;;;9.81;100.00;99766.97;6008501;23;20237;-82
2022/11/06 08:31:42;;;;;;;5.07;3.70;;;;;;;9.78;100.00;99769.25;6008906;23;20246;-82
2022/11/06 08:34:10;;;;;;;7.00;3.90;;;;;;;9.77;100.00;99768.41;6032961;23;20163;-82
2022/11/06 08:36:49;;;;;;;6.30;4.07;;;;;;;9.93;100.00;99759.09;6010244;23;20197;-82
2022/11/06 08:39:19;;;;;;;5.37;3.87;;;;;;;10.00;100.00;99762.56;6012703;23;20221;-82
2022/11/06 08:41:52;;;;;;;6.27;3.90;;;;;;;9.99;100.00;99764.41;6012710;23;20627;-82
2022/11/06 08:44:44;;;;;;;5.57;3.37;;;;;;;9.98;100.00;99753.94;6036245;23;20169;-83
2022/11/06 08:47:13;;;;;;;6.17;3.60;;;;;;;9.99;100.00;99751.03;6012275;23;20278;-82
2022/11/06 08:49:50;;;;;;;6.00;3.50;;;;;;;9.91;100.00;99740.56;6035066;23;20166;-82
2022/11/06 08:52:20;;;;;;;5.40;3.67;;;;;;;10.06;100.00;99754.50;6008943;23;20202;-82
2022/11/06 08:54:53;;;;;;;5.53;3.33;;;;;;;10.05;100.00;99744.84;6009039;23;20183;-84
2022/11/06 08:57:32;;;;;;;5.77;3.20;;;;;;;10.23;100.00;99752.19;6034720;23;20142;-82
2022/11/06 09:00:13;;;;;;;6.30;3.37;;;;;;;10.36;100.00;99751.31;6009477;23;20169;-81
2022/11/06 12:36:23;;;;;;;3.50;1.80;;;;;;;12.51;96.00;99520.06;6043692;23;20241;-87
2022/11/06 12:38:58;;;;;;;3.37;1.60;;;;;;;12.54;93.70;99525.00;5993075;23;20158;-85
2022/11/06 12:41:30;;;;;;;3.87;1.67;;;;;;;12.50;94.49;99519.28;5992273;23;20244;-85
2022/11/06 12:43:57;;;;;;;4.20;1.67;;;;;;;12.38;92.31;99523.81;6016864;23;20173;-84
2022/11/06 12:46:39;;;;;;;3.00;1.80;;;;;;;12.41;93.73;99522.56;6050011;23;20165;-84
2022/11/06 12:49:11;;;;;;;3.80;1.73;;;;;;;12.39;94.28;99520.09;6041338;23;20174;-82
2022/11/06 12:51:42;;;;;;;4.37;1.90;;;;;;;12.12;94.34;99518.91;6018474;23;20205;-83
2022/11/06 12:54:31;;;;;;;3.60;1.70;;;;;;;12.24;93.10;99517.84;6042626;23;20155;-85
2022/11/06 12:57:14;;;;;;;2.73;1.40;;;;;;;12.51;92.83;99515.50;6015084;23;20258;-86
2022/11/06 12:59:49;;;;;;;4.77;1.83;;;;;;;12.33;92.46;99519.16;6040378;23;20155;-84
2022/11/06 13:03:01;;;;;;;2.93;1.67;;;;;;;12.14;92.03;99517.63;6046895;23;20180;-83
2022/11/06 13:05:54;;;;;;;4.90;1.90;;;;;;;12.21;93.02;99512.16;6027315;23;20177;-83
2022/11/06 13:08:34;;;;;;;5.03;1.57;;;;;;;12.46;90.95;99496.59;5972920;23;20202;-84
2022/11/06 13:11:30;;;;;;;3.33;1.53;;;;;;;12.44;88.67;99495.19;6015487;23;20165;-85
2022/11/06 13:14:21;;;;;;;4.10;1.70;;;;;;;12.46;87.01;99501.97;6042106;23;20246;-84
2022/11/06 13:16:54;;;;;;;3.10;1.80;;;;;;;12.35;89.79;99506.31;6015766;23;20174;-84
2022/11/06 13:19:32;;;;;;;4.80;1.53;;;;;;;12.01;88.06;99485.63;6042554;23;20229;-83
2022/11/06 13:22:28;;;;;;;3.40;1.57;;;;;;;11.90;89.75;99497.16;6003064;23;20158;-83
2022/11/06 13:25:11;;;;;;;3.37;1.80;;;;;;;11.82;90.35;99489.44;6026038;23;20169;-83
2022/11/06 13:27:58;;;;;;;2.73;1.60;;;;;;;11.93;91.12;99485.16;6032315;23;20190;-83
2022/11/06 13:30:27;;;;;;;5.07;1.90;;;;;;;12.05;93.87;99489.47;6011520;23;20178;-82
2022/11/06 13:33:13;;;;;;;4.53;1.87;;;;;;;11.83;94.06;99481.16;6035759;23;20162;-82
2022/11/06 13:35:42;;;;;;;3.93;1.80;;;;;;;11.94;93.59;99481.41;6022276;23;20198;-84
2022/11/06 13:38:14;;;;;;;2.63;1.73;;;;;;;11.79;93.84;99492.59;6016192;23;20166;-83
2022/11/06 13:41:06;;;;;;;4.47;1.80;;;;;;;11.78;92.35;99485.59;6031772;23;20154;-82
2022/11/06 13:43:38;;;;;;;2.90;1.83;;;;;;;11.78;92.41;99488.28;6024006;23;20179;-83
2022/11/06 13:46:17;;;;;;;3.17;1.77;;;;;;;11.86;92.83;99480.69;5988491;23;20165;-86
2022/11/06 13:49:22;;;;;;;4.00;1.70;;;;;;;11.82;92.26;99482.22;6012433;23;20624;-84
2022/11/06 13:51:52;;;;;;;3.60;1.87;;;;;;;11.67;91.94;99486.34;5971470;23;20174;-84
2022/11/06 13:54:47;;;;;;;3.93;1.50;;;;;;;11.59;91.71;99490.19;6002273;23;20230;-82
2022/11/06 13:57:36;;;;;;;3.37;1.57;;;;;;;11.66;92.04;99485.53;5992692;23;20229;-84
2022/11/06 14:00:23;;;;;;;2.83;1.33;;;;;;;11.71;92.47;99476.81;6011725;23;20159;-86
2022/11/06 14:11:29;;;;;;;3.90;1.50;;;;;;;11.59;93.58;99457.97;6030922;23;20278;-83
2022/11/06 14:14:01;;;;;;;3.63;1.67;;;;;;;11.61;94.41;99455.91;6040655;23;20194;-83
2022/11/06 14:16:37;;;;;;;3.50;1.50;;;;;;;11.51;92.37;99462.88;6042281;23;20181;-91
2022/11/06 14:19:10;;;;;;;3.23;1.80;;;;;;;11.57;92.68;99464.63;6017208;23;20233;-87
2022/11/06 14:21:36;;;;;;;8.00;2.63;;;;;;;11.59;94.59;99470.56;6015239;23;20543;-88
2022/11/06 14:24:16;;;;;;;5.33;2.80;;;;;;;11.64;95.13;99468.84;6015094;23;20158;-90
2022/11/06 14:26:44;;;;;;;5.47;2.60;;;;;;;11.63;95.85;99475.25;6015321;23;20158;-88
2022/11/06 14:29:40;;;;;;;3.90;1.80;;;;;;;11.57;95.57;99464.63;6038279;23;20184;-90
2022/11/06 14:32:20;;;;;;;3.23;1.73;;;;;;;11.62;96.50;99460.19;5991962;23;20227;-87
2022/11/06 14:34:47;;;;;;;3.90;2.07;;;;;;;11.50;96.28;99454.00;6040155;23;20167;-87
2022/11/06 14:37:16;;;;;;;4.13;2.03;;;;;;;11.40;96.69;99457.22;6040096;23;20168;-87
2022/11/06 14:39:55;;;;;;;3.00;1.90;;;;;;;11.39;97.58;99452.91;6039822;23;20558;-88
2022/11/06 14:42:31;;;;;;;3.60;1.93;;;;;;;11.12;97.78;99456.19;6039764;23;20174;-87
2022/11/06 14:45:14;;;;;;;5.53;2.63;;;;;;;11.01;99.27;99455.91;6015336;23;20165;-88
2022/11/06 14:47:51;;;;;;;4.13;2.13;;;;;;;10.80;100.00;99456.41;6015571;23;20224;-86
2022/11/06 14:50:17;;;;;;;3.90;1.90;;;;;;;10.73;100.00;99455.66;5991958;23;20172;-87
2022/11/06 14:52:47;;;;;;;7.20;2.20;;;;;;;10.59;100.00;99455.00;6039701;23;20166;-87
2022/11/06 14:55:24;;;;;;;5.23;2.37;;;;;;;10.61;100.00;99460.13;6015175;23;20244;-87
2022/11/06 14:57:52;;;;;;;2.60;2.10;;;;;;;10.48;100.00;99454.94;6040028;23;20151;-87
2022/11/06 15:00:34;;;;;;;4.20;2.10;;;;;;;10.33;100.00;99470.53;6015110;23;20516;-86
2022/11/06 15:03:03;;;;;;;4.83;2.03;;;;;;;10.23;100.00;99470.22;6014804;23;20591;-85
2022/11/06 15:05:30;;;;;;;4.90;2.00;;;;;;;10.10;100.00;99465.78;6015543;23;20596;-87
2022/11/06 15:07:58;;;;;;;5.03;2.13;;;;;;;9.99;100.00;99469.16;6015003;23;20639;-86
2022/11/06 15:10:43;;;;;;;3.87;2.10;;;;;;;9.94;100.00;99461.81;5994658;23;20229;-87
2022/11/06 15:13:16;;;;;;;3.87;2.00;;;;;;;9.83;100.00;99465.22;6014249;23;20272;-87
2022/11/06 15:15:45;;;;;;;3.10;2.10;;;;;;;9.76;100.00;99455.59;6037900;23;20162;-89
2022/11/06 15:18:15;;;;;;;2.87;1.93;;;;;;;9.67;100.00;99455.84;5990895;23;20174;-87
2022/11/06 15:20:42;;;;;;;2.90;2.00;;;;;;;9.56;100.00;99451.22;6014375;23;20154;-87
2022/11/06 15:27:14;;;;;;;4.63;2.10;;;;;;;9.26;100.00;99437.66;5970306;23;20552;-85
2022/11/06 15:29:41;;;;;;;3.70;2.17;;;;;;;9.15;100.00;99434.81;6021274;23;20178;-84
2022/11/06 15:32:11;;;;;;;4.03;1.93;;;;;;;9.03;100.00;99433.88;6022039;23;20240;-85
2022/11/06 15:34:44;;;;;;;3.27;1.80;;;;;;;8.90;100.00;99426.75;6026685;23;20480;-85
2022/11/06 15:37:29;;;;;;;4.27;2.40;;;;;;;8.82;100.00;99430.47;6032591;23;20173;-85
2022/11/06 15:40:42;;;;;;;4.47;2.43;;;;;;;8.61;100.00;99433.47;6063017;23;20313;-84
2022/11/06 15:44:10;;;;;;;4.07;2.73;;;;;;;8.46;100.00;99421.41;6067604;23;20157;-83
2022/11/06 15:47:19;;;;;;;4.20;2.40;;;;;;;8.36;100.00;99406.63;6042316;23;20149;-84
2022/11/06 15:50:37;;;;;;;4.43;3.10;;;;;;;8.21;100.00;99407.91;6061449;23;20221;-84
2022/11/06 15:53:25;;;;;;;5.07;3.20;;;;;;;8.02;100.00;99404.25;6066412;23;20225;-84
2022/11/06 15:56:03;;;;;;;14.43;10.67;;;;;;;7.88;100.00;99400.81;6042433;23;20180;-84
2022/11/06 15:58:33;;;;;;;17.67;15.87;;;;;;;7.85;100.00;99405.72;6017647;23;20169;-84
2022/11/06 16:01:11;;;;;;;14.07;11.73;;;;;;;7.82;100.00;99416.78;6018650;23;20161;-84
2022/11/06 16:03:49;;;;;;;16.43;13.67;;;;;;;7.68;100.00;99408.00;6016978;23;20252;-82
2022/11/06 16:06:17;;;;;;;14.47;10.97;;;;;;;7.64;100.00;99408.59;6011712;23;20169;-83
2022/11/06 16:08:47;;;;;;;16.30;13.70;;;;;;;7.51;100.00;99401.44;6062414;23;20213;-83
2022/11/06 16:11:16;;;;;;;12.53;10.33;;;;;;;7.43;100.00;99407.78;6034694;23;20197;-83
2022/11/06 16:13:43;;;;;;;11.87;8.30;;;;;;;7.38;100.00;99402.25;6057164;23;20161;-82
2022/11/06 16:16:42;;;;;;;11.03;7.20;;;;;;;7.42;100.00;99407.97;6031002;23;20213;-82
2022/11/06 16:19:38;;;;;;;11.83;8.33;;;;;;;7.27;100.00;99391.38;6055702;23;20166;-83
2022/11/06 16:22:22;;;;;;;19.73;14.17;;;;;;;7.22;100.00;99393.84;6042359;23;20193;-84
2022/11/06 16:25:00;;;;;;;24.23;20.77;;;;;;;7.25;100.00;99407.56;6066165;23;20173;-82
2022/11/06 16:28:20;;;;;;;20.13;15.03;;;;;;;7.13;100.00;99392.41;6067208;23;20183;-85
2022/11/06 16:31:04;;;;;;;20.70;14.47;;;;;;;7.14;100.00;99381.50;6044839;23;20137;-84
2022/11/06 16:34:01;;;;;;;18.90;14.10;;;;;;;7.04;100.00;99387.25;6064437;23;20157;-82
2022/11/06 16:37:04;;;;;;;19.50;12.57;;;;;;;6.88;100.00;99384.97;6067304;23;20161;-82
2022/11/06 16:44:30;;;;;;;18.40;14.37;;;;;;;6.86;100.00;99386.22;6067503;23;20154;-82
2022/11/06 16:47:13;;;;;;;16.80;11.97;;;;;;;6.87;100.00;99385.97;6041698;23;20153;-82
2022/11/06 16:50:14;;;;;;;17.47;12.77;;;;;;;6.81;100.00;99378.78;5996691;23;20226;-82
2022/11/06 16:52:51;;;;;;;15.97;11.60;;;;;;;6.86;100.00;99387.00;6066011;23;20169;-82
2022/11/06 16:55:35;;;;;;;13.70;10.13;;;;;;;6.71;100.00;99380.22;6062283;23;20205;-82
2022/11/06 16:58:16;;;;;;;13.47;9.60;;;;;;;6.69;100.00;99390.22;6021901;23;20162;-83
2022/11/06 17:01:04;;;;;;;11.53;9.57;;;;;;;6.62;100.00;99375.06;6067524;23;20184;-82
2022/11/06 17:03:45;;;;;;;12.70;9.83;;;;;;;6.67;100.00;99386.97;6022191;23;20166;-83
2022/11/06 17:06:45;;;;;;;12.33;9.57;;;;;;;6.58;100.00;99384.47;6049513;23;20171;-82
2022/11/06 17:09:36;;;;;;;13.90;10.53;;;;;;;6.54;100.00;99383.22;6066798;23;20194;-82
2022/11/06 17:20:35;;;;;;;12.17;8.40;;;;;;;6.34;100.00;99381.53;6004226;23;20162;-82
2022/11/06 17:23:15;;;;;;;10.33;8.47;;;;;;;6.31;100.00;99377.41;6009175;24;20155;-82
2022/11/06 17:25:49;;;;;;;11.33;7.93;;;;;;;6.26;100.00;99377.16;6008106;24;20175;-82
2022/11/06 17:28:22;;;;;;;10.50;8.10;;;;;;;6.19;100.00;99371.84;5965469;23;20190;-82
